Terminal Aerodrome Forecast
Issued by NWS

Home | Current Version | Previous Version | Text Only | Print | Product List | Glossary On
Versions: 1 2 3 4 5 6 7 8 9 10 11 12 13 14 15 16 17 18 19 20 21 22
868
FTUS43 KGRR 091740
TAFAZO
TAF
KAZO 091740Z 0918/1018 28010G18KT 3SM -SHSN OVC030
      TEMPO 0918/0922 1 1/2SM -SHSN OVC015
     FM092200 27008KT 6SM -SHSN OVC035
     FM101600 27008KT 5SM -SHSN OVC025=

USA.gov is the U.S. government's official web portal to all federal, state and local government web resources and services.